createdAt,value
2018-07-20T00:01:40.392Z,100964.91
2018-07-20T00:04:09.021Z,100958.30
2018-07-20T00:06:37.517Z,100957.02
2018-07-20T00:09:08.333Z,100955.78
2018-07-20T00:11:37.322Z,100948.28
2018-07-20T00:14:05.801Z,100947.92
2018-07-20T00:16:34.281Z,100948.38
2018-07-20T00:19:03.845Z,100949.74
2018-07-20T00:21:32.544Z,100946.28
2018-07-20T00:24:01.175Z,100942.89
2018-07-20T00:26:29.782Z,100941.80
2018-07-20T00:28:58.877Z,100936.17
2018-07-20T00:31:27.317Z,100933.62
2018-07-20T00:33:55.773Z,100935.92
2018-07-20T00:36:24.491Z,100937.69
2018-07-20T00:38:53.824Z,100933.16
2018-07-20T00:41:23.565Z,100937.69
2018-07-20T00:43:52.185Z,100939.63
2018-07-20T00:46:21.121Z,100940.64
2018-07-20T00:48:50.271Z,100939.34
2018-07-20T00:51:18.733Z,100941.13
2018-07-20T00:53:47.591Z,100932.20
2018-07-20T00:56:16.510Z,100939.34
2018-07-20T00:58:44.945Z,100934.53
2018-07-20T01:01:13.396Z,100931.89
2018-07-20T01:03:42.089Z,100930.05
2018-07-20T01:06:10.538Z,100936.27
2018-07-20T01:08:39.034Z,100930.09
2018-07-20T01:11:08.278Z,100927.52
2018-07-20T01:13:37.109Z,100934.73
2018-07-20T01:16:05.570Z,100928.08
2018-07-20T01:18:34.057Z,100926.71
2018-07-20T01:21:03.491Z,100925.06
2018-07-20T01:23:31.953Z,100929.97
2018-07-20T01:26:00.724Z,100925.56
2018-07-20T01:28:29.465Z,100922.94
2018-07-20T01:30:57.921Z,100917.28
2018-07-20T01:33:26.408Z,100924.38
2018-07-20T01:35:55.249Z,100926.55
2018-07-20T01:38:23.726Z,100924.81
2018-07-20T01:40:52.742Z,100917.73
2018-07-20T01:43:21.670Z,100916.05
2018-07-20T01:45:50.296Z,100914.41
2018-07-20T01:48:18.870Z,100914.54
2018-07-20T01:50:47.365Z,100915.50
2018-07-20T01:53:16.372Z,100918.16
2018-07-20T01:55:45.324Z,100914.64
2018-07-20T01:58:13.765Z,100912.42
2018-07-20T02:00:42.445Z,100909.38
2018-07-20T02:03:11.382Z,100909.02
2018-07-20T02:05:39.825Z,100909.50
2018-07-20T02:08:08.749Z,100912.16
2018-07-20T02:10:37.961Z,100913.52
2018-07-20T02:13:06.601Z,100913.16
2018-07-20T02:15:35.753Z,100915.41
2018-07-20T02:18:04.709Z,100912.33
2018-07-20T02:20:33.429Z,100914.63
2018-07-20T02:23:02.189Z,100908.51
2018-07-20T02:25:31.293Z,100916.08
2018-07-20T02:27:59.750Z,100917.86
2018-07-20T02:30:28.185Z,100907.58
2018-07-20T02:32:57.140Z,100911.49
2018-07-20T02:35:25.829Z,100910.09
2018-07-20T02:37:54.277Z,100907.38
2018-07-20T02:40:23.425Z,100905.16
2018-07-20T02:42:52.549Z,100911.42
2018-07-20T02:45:21.029Z,100907.48
2018-07-20T02:47:49.872Z,100908.42
2018-07-20T02:50:18.918Z,100904.02
2018-07-20T02:52:47.545Z,100905.77
2018-07-20T02:55:16.061Z,100905.34
2018-07-20T02:57:44.550Z,100906.68
2018-07-20T03:00:13.322Z,100901.77
2018-07-20T03:02:41.789Z,100901.75
2018-07-20T03:05:10.285Z,100901.66
2018-07-20T03:07:38.726Z,100905.06
2018-07-20T03:10:07.926Z,100903.19
2018-07-20T03:12:36.450Z,100490.55
2018-07-20T03:15:05.021Z,100898.63
2018-07-20T03:17:33.535Z,100895.05
2018-07-20T03:20:02.134Z,100884.83
2018-07-20T03:22:30.821Z,100890.63
2018-07-20T03:25:00.309Z,100886.20
2018-07-20T03:27:29.165Z,100896.87
2018-07-20T03:29:57.605Z,100899.94
2018-07-20T03:32:26.513Z,100893.67
2018-07-20T03:34:55.210Z,100895.43
2018-07-20T03:37:23.664Z,100899.39
2018-07-20T03:39:53.033Z,100900.22
2018-07-20T03:42:21.485Z,100900.59
2018-07-20T03:44:50.385Z,100895.66
2018-07-20T03:47:19.137Z,100891.17
2018-07-20T03:49:47.633Z,100902.67
2018-07-20T03:52:16.322Z,100898.65
2018-07-20T03:54:44.815Z,100893.69
2018-07-20T03:57:13.648Z,100889.20
2018-07-20T03:59:42.089Z,100889.59
2018-07-20T04:02:10.586Z,100892.23
2018-07-20T04:04:39.045Z,100897.52
2018-07-20T04:07:07.813Z,100897.89
2018-07-20T04:09:36.791Z,100898.73
2018-07-20T04:12:05.501Z,100899.50
2018-07-20T04:14:34.180Z,100892.25
2018-07-20T04:17:03.638Z,100889.04
2018-07-20T04:19:32.089Z,100891.17
2018-07-20T04:22:00.731Z,100889.31
2018-07-20T04:24:29.463Z,100899.00
2018-07-20T04:26:57.925Z,100894.51
2018-07-20T04:29:26.600Z,100884.67
2018-07-20T04:31:55.475Z,100886.77
2018-07-20T04:34:24.018Z,100890.62
2018-07-20T04:36:52.498Z,100882.93
2018-07-20T04:39:21.341Z,100886.81
2018-07-20T04:41:50.337Z,100882.70
2018-07-20T04:44:18.787Z,100881.27
2018-07-20T04:46:47.871Z,100884.37
2018-07-20T04:49:16.747Z,100878.59
2018-07-20T04:51:45.709Z,100885.70
2018-07-20T04:54:14.569Z,100887.92
2018-07-20T04:56:42.989Z,100891.48
2018-07-20T04:59:11.725Z,100885.64
2018-07-20T05:01:40.653Z,100886.52
2018-07-20T05:04:09.373Z,100884.27
2018-07-20T05:06:38.109Z,100878.86
2018-07-20T05:09:09.144Z,100877.84
2018-07-20T05:11:37.921Z,100876.83
2018-07-20T05:14:06.603Z,100877.14
2018-07-20T05:16:35.609Z,100879.39
2018-07-20T05:19:04.250Z,100875.38
2018-07-20T05:21:33.085Z,100875.70
2018-07-20T05:24:02.520Z,100874.30
2018-07-20T05:26:31.112Z,100875.59
2018-07-20T05:28:59.812Z,100879.12
2018-07-20T05:31:28.854Z,100880.38
2018-07-20T05:33:57.830Z,100874.53
2018-07-20T05:36:26.301Z,100876.23
2018-07-20T05:38:55.210Z,100870.31
2018-07-20T05:41:24.065Z,100851.34
2018-07-20T05:43:53.110Z,100872.23
2018-07-20T05:46:22.726Z,100865.78
2018-07-20T05:48:51.717Z,100872.73
2018-07-20T05:51:20.540Z,100874.76
2018-07-20T05:53:49.469Z,100863.47
2018-07-20T05:56:18.296Z,100866.49
2018-07-20T05:58:46.736Z,100867.21
2018-07-20T06:01:15.874Z,100862.66
2018-07-20T06:03:44.653Z,100854.96
2018-07-20T06:06:13.099Z,100855.76
2018-07-20T06:08:41.885Z,100855.17
2018-07-20T06:11:10.713Z,100848.35
2018-07-20T06:13:39.150Z,100848.61
2018-07-20T06:16:08.227Z,100843.50
2018-07-20T06:18:37.067Z,100840.60
2018-07-20T06:21:06.169Z,100846.52
2018-07-20T06:23:35.047Z,100839.92
2018-07-20T06:26:03.754Z,100842.30
2018-07-20T06:28:32.710Z,100842.34
2018-07-20T06:31:01.714Z,100844.70
2018-07-20T06:33:30.188Z,100848.74
2018-07-20T06:35:58.789Z,100849.66
2018-07-20T06:38:27.739Z,100846.94
2018-07-20T06:40:56.211Z,100846.59
2018-07-20T06:43:24.666Z,100843.55
2018-07-20T06:45:54.022Z,100844.89
2018-07-20T06:48:22.559Z,100842.64
2018-07-20T06:50:51.372Z,100839.12
2018-07-20T06:53:20.487Z,100832.59
2018-07-20T06:55:49.019Z,100833.83
2018-07-20T06:58:17.508Z,100831.83
2018-07-20T07:00:46.938Z,100829.80
2018-07-20T07:03:15.505Z,100833.44
2018-07-20T07:05:44.226Z,100829.18
2018-07-20T07:08:13.093Z,100828.52
2018-07-20T07:10:41.885Z,100827.00
2018-07-20T07:13:10.543Z,100823.20
2018-07-20T07:15:39.461Z,100818.88
2018-07-20T07:18:08.806Z,100814.09
2018-07-20T07:20:37.254Z,100809.77
2018-07-20T07:23:06.053Z,100809.22
2018-07-20T07:25:34.990Z,100809.80
2018-07-20T07:28:03.454Z,100802.61
2018-07-20T07:30:31.966Z,100799.29
2018-07-20T07:33:01.234Z,100803.19
2018-07-20T07:35:30.026Z,100797.86
2018-07-20T07:37:58.902Z,100793.78
2018-07-20T07:40:27.362Z,100793.63
2018-07-20T07:42:56.110Z,100794.54
2018-07-20T07:45:24.659Z,100794.66
2018-07-20T07:47:53.733Z,100786.32
2018-07-20T07:50:22.736Z,100790.99
2018-07-20T07:52:51.517Z,100786.97
2018-07-20T07:55:19.963Z,100787.42
2018-07-20T07:57:48.415Z,100783.58
2018-07-20T08:00:17.206Z,100786.91
2018-07-20T08:02:46.637Z,100785.17
2018-07-20T08:05:15.088Z,100650.14
2018-07-20T08:07:44.042Z,100789.70
2018-07-20T08:10:12.821Z,100787.55
2018-07-20T08:12:41.273Z,100779.45
2018-07-20T08:15:10.097Z,100778.91
2018-07-20T08:17:38.959Z,100780.09
2018-07-20T08:20:07.602Z,100774.56
2018-07-20T08:22:36.550Z,100779.84
2018-07-20T08:25:05.358Z,100772.12
2018-07-20T08:27:34.213Z,100774.25
2018-07-20T08:30:03.342Z,100773.13
2018-07-20T08:32:31.793Z,100773.51
2018-07-20T08:35:00.937Z,100772.80
2018-07-20T08:37:30.089Z,100776.48
2018-07-20T08:39:58.540Z,100770.65
2018-07-20T08:42:27.577Z,100770.59
2018-07-20T08:44:56.853Z,100764.15
2018-07-20T08:47:25.549Z,100763.08
2018-07-20T08:49:54.021Z,100765.63
2018-07-20T08:52:24.050Z,100759.98
2018-07-20T08:54:53.569Z,100763.99
2018-07-20T08:57:22.021Z,100768.25
2018-07-20T08:59:50.897Z,100765.64
2018-07-20T09:02:19.389Z,100764.38
2018-07-20T09:04:47.890Z,100760.47
2018-07-20T09:07:16.796Z,100759.92
2018-07-20T09:09:45.253Z,100757.05
2018-07-20T09:12:13.949Z,100753.95
2018-07-20T09:14:42.635Z,100757.78
2018-07-20T09:17:11.281Z,100757.62
2018-07-20T09:19:39.780Z,100743.37
2018-07-20T09:22:08.553Z,100745.04
2018-07-20T09:24:37.005Z,100749.96
2018-07-20T09:27:05.499Z,100738.53
2018-07-20T09:29:34.504Z,100740.73
2018-07-20T09:32:03.153Z,100744.40
2018-07-20T09:34:31.925Z,100734.83
2018-07-20T09:37:01.381Z,100737.73
2018-07-20T09:39:30.086Z,100731.34
2018-07-20T09:41:58.609Z,100724.70
2018-07-20T09:44:27.575Z,100722.89
2018-07-20T09:46:56.161Z,100728.78
2018-07-20T09:49:24.966Z,100719.77
2018-07-20T09:51:53.749Z,100723.75
2018-07-20T09:54:22.854Z,100710.95
2018-07-20T09:56:51.621Z,100712.04
2018-07-20T09:59:21.096Z,100715.46
2018-07-20T10:01:49.589Z,100710.02
2018-07-20T10:04:18.197Z,100705.55
2018-07-20T10:06:47.876Z,100712.12
2018-07-20T10:09:16.337Z,100525.50
2018-07-20T10:11:44.796Z,100704.63
2018-07-20T10:14:14.781Z,100698.86
2018-07-20T10:16:43.238Z,100685.50
2018-07-20T10:19:11.746Z,100684.86
2018-07-20T10:21:40.366Z,100684.78
2018-07-20T10:24:08.805Z,100677.40
2018-07-20T10:26:37.275Z,100682.92
2018-07-20T10:29:06.161Z,100682.06
2018-07-20T10:31:34.659Z,100681.16
2018-07-20T10:34:03.419Z,100676.23
2018-07-20T10:36:32.947Z,100673.49
2018-07-20T10:39:01.951Z,100668.95
2018-07-20T10:41:30.637Z,100662.31
2018-07-20T10:43:59.395Z,100668.77
2018-07-20T10:46:27.842Z,100665.22
2018-07-20T10:48:56.371Z,100663.73
2018-07-20T10:51:25.849Z,100665.67
2018-07-20T10:53:54.313Z,100667.30
2018-07-20T10:56:23.061Z,100669.22
2018-07-20T10:58:52.362Z,100669.05
2018-07-20T11:01:21.184Z,100667.06
2018-07-20T11:03:49.593Z,100663.86
2018-07-20T11:06:19.278Z,100662.70
2018-07-20T11:08:48.681Z,100660.92
2018-07-20T11:11:17.133Z,100660.70
2018-07-20T11:13:45.912Z,100661.53
2018-07-20T11:16:14.682Z,100654.84
2018-07-20T11:18:43.266Z,100652.77
2018-07-20T11:21:11.933Z,100644.55
2018-07-20T11:23:40.697Z,100644.53
2018-07-20T11:26:09.734Z,100634.09
2018-07-20T11:28:38.370Z,100634.80
2018-07-20T11:31:06.834Z,100635.19
2018-07-20T11:33:35.309Z,100629.64
2018-07-20T11:36:04.153Z,100632.12
2018-07-20T11:38:32.803Z,100629.47
2018-07-20T11:41:01.265Z,100630.41
2018-07-20T11:43:30.085Z,100622.02
2018-07-20T11:45:58.865Z,100626.55
2018-07-20T11:48:27.318Z,100625.24
2018-07-20T11:50:56.165Z,100616.61
2018-07-20T11:53:24.937Z,100609.71
2018-07-20T11:55:53.626Z,100613.91
2018-07-20T11:58:22.517Z,100611.70
2018-07-20T12:00:51.417Z,100603.14
2018-07-20T12:03:19.970Z,100595.53
2018-07-20T12:05:48.558Z,100600.91
2018-07-20T12:08:17.102Z,100596.91
2018-07-20T12:10:45.725Z,100595.36
2018-07-20T12:13:14.655Z,100594.92
2018-07-20T12:15:43.673Z,100600.92
2018-07-20T12:18:12.137Z,100598.19
2018-07-20T12:20:41.086Z,100603.21
2018-07-20T12:23:09.785Z,100604.30
2018-07-20T12:25:38.254Z,100603.73
2018-07-20T12:28:06.812Z,100604.05
2018-07-20T12:30:35.501Z,100604.86
2018-07-20T12:33:04.002Z,100603.09
2018-07-20T12:35:33.081Z,100595.23
2018-07-20T12:38:02.167Z,100599.48
2018-07-20T12:40:30.897Z,100599.73
2018-07-20T12:42:59.763Z,100598.66
2018-07-20T12:45:28.565Z,100591.58
2018-07-20T12:47:57.082Z,100586.89
2018-07-20T12:50:25.937Z,100584.44
2018-07-20T12:52:54.870Z,100586.61
2018-07-20T12:55:24.011Z,100587.47
2018-07-20T12:57:53.486Z,100595.49
2018-07-20T13:00:22.734Z,100559.98
2018-07-20T13:02:51.633Z,100606.03
2018-07-20T13:05:20.677Z,100610.17
2018-07-20T13:07:49.301Z,100608.45
2018-07-20T13:10:17.792Z,100615.52
2018-07-20T13:12:53.183Z,100606.34
2018-07-20T13:15:21.638Z,100614.66
2018-07-20T13:17:50.412Z,100616.30
2018-07-20T13:20:19.006Z,100612.30
2018-07-20T13:22:47.490Z,100605.16
2018-07-20T13:25:16.989Z,100619.20
2018-07-20T13:27:46.039Z,100609.62
2018-07-20T13:30:14.730Z,100610.70
2018-07-20T13:32:43.405Z,100607.88
2018-07-20T13:35:12.318Z,100602.90
2018-07-20T13:37:41.088Z,100601.77
2018-07-20T13:40:09.793Z,100602.19
2018-07-20T13:42:39.003Z,100600.52
2018-07-20T13:45:08.188Z,100604.40
2018-07-20T13:47:36.746Z,100599.80
2018-07-20T13:50:06.166Z,100597.73
2018-07-20T13:52:34.799Z,100598.72
2018-07-20T13:55:03.779Z,100598.87
2018-07-20T13:57:32.698Z,100594.31
2018-07-20T14:00:01.138Z,100588.16
2018-07-20T14:02:29.798Z,100584.64
2018-07-20T14:04:58.904Z,100586.61
2018-07-20T14:07:27.382Z,100588.63
2018-07-20T14:09:56.121Z,100587.45
2018-07-20T14:12:24.754Z,100586.05
2018-07-20T14:14:54.077Z,100584.07
2018-07-20T14:17:23.141Z,100576.69
2018-07-20T14:19:51.613Z,100574.12
2018-07-20T14:22:20.179Z,100577.13
2018-07-20T14:24:48.630Z,100572.94
2018-07-20T14:27:17.452Z,100574.85
2018-07-20T14:29:46.230Z,100576.02
2018-07-20T14:32:14.674Z,100569.37
2018-07-20T14:34:43.514Z,100563.91
2018-07-20T14:37:13.425Z,100570.16
2018-07-20T14:39:41.962Z,100559.86
2018-07-20T14:42:10.810Z,100562.33
2018-07-20T14:44:39.593Z,100571.38
2018-07-20T14:47:08.377Z,100564.12
2018-07-20T14:49:36.853Z,100567.41
2018-07-20T14:52:05.309Z,100562.23
2018-07-20T14:54:33.765Z,100573.77
2018-07-20T14:57:02.587Z,100570.72
2018-07-20T14:59:31.081Z,100573.25
2018-07-20T15:01:59.765Z,100574.75
2018-07-20T15:04:28.974Z,100574.39
2018-07-20T15:06:57.953Z,100575.27
2018-07-20T15:09:26.486Z,100572.50
2018-07-20T15:11:55.355Z,100572.41
2018-07-20T15:14:24.051Z,100573.51
2018-07-20T15:16:52.777Z,100577.38
2018-07-20T15:19:21.551Z,100580.82
2018-07-20T15:21:50.165Z,100577.02
2018-07-20T15:24:18.616Z,100577.84
2018-07-20T15:26:47.451Z,100582.15
2018-07-20T15:29:16.205Z,100576.08
2018-07-20T15:31:44.900Z,100573.09
2018-07-20T15:34:13.377Z,100573.64
2018-07-20T15:36:42.272Z,100569.77
2018-07-20T15:39:11.841Z,100579.17
2018-07-20T15:41:40.741Z,100575.28
2018-07-20T15:44:09.198Z,100577.17
2018-07-20T15:46:37.950Z,100569.48
2018-07-20T15:49:06.842Z,100568.11
2018-07-20T15:53:35.053Z,100569.06
2018-07-20T15:54:04.314Z,100566.67
2018-07-20T15:56:33.797Z,100571.57
2018-07-20T15:59:02.269Z,100565.83
2018-07-20T16:01:30.737Z,100565.14
2018-07-20T16:03:59.548Z,100564.14
2018-07-20T16:06:28.222Z,100564.89
2018-07-20T16:08:56.853Z,100563.45
2018-07-20T16:11:25.702Z,100554.08
2018-07-20T16:13:54.140Z,100561.91
2018-07-20T16:16:23.266Z,100553.69
2018-07-20T16:18:52.049Z,100555.87
2018-07-20T16:21:20.529Z,100552.80
2018-07-20T16:23:48.960Z,100551.45
2018-07-20T16:26:17.768Z,100551.94
2018-07-20T16:28:46.290Z,100550.25
2018-07-20T16:31:14.742Z,100557.38
2018-07-20T16:33:43.486Z,100550.84
2018-07-20T16:36:12.289Z,100550.55
2018-07-20T16:38:40.729Z,100555.30
2018-07-20T16:41:09.261Z,100552.28
2018-07-20T16:43:38.048Z,100549.16
2018-07-20T16:46:06.753Z,100553.00
2018-07-20T16:48:35.673Z,100552.91
2018-07-20T16:51:04.129Z,100556.73
2018-07-20T16:53:32.721Z,100554.41
2018-07-20T16:56:01.305Z,100551.09
2018-07-20T16:58:29.782Z,100544.80
2018-07-20T17:00:58.511Z,100546.88
2018-07-20T17:03:27.064Z,100551.78
2018-07-20T17:05:55.525Z,100548.09
2018-07-20T17:08:24.258Z,100548.45
2018-07-20T17:10:53.671Z,100550.30
2018-07-20T17:13:23.089Z,100549.55
2018-07-20T17:15:52.031Z,100553.33
2018-07-20T17:18:20.741Z,100553.84
2018-07-20T17:20:49.169Z,100549.81
2018-07-20T17:23:18.246Z,100551.16
2018-07-20T17:25:47.179Z,100549.09
2018-07-20T17:28:16.105Z,100553.31
2018-07-20T17:30:44.877Z,100553.79
2018-07-20T17:33:14.489Z,100555.95
2018-07-20T17:35:42.929Z,100556.13
2018-07-20T17:38:11.583Z,100550.89
2018-07-20T17:40:40.442Z,100552.97
2018-07-20T17:43:09.275Z,100555.31
2018-07-20T17:45:37.913Z,100556.11
2018-07-20T17:48:06.838Z,100554.52
2018-07-20T17:50:35.266Z,100559.70
2018-07-20T17:53:11.043Z,100562.08
2018-07-20T17:55:39.721Z,100569.06
2018-07-20T17:58:08.146Z,100566.05
2018-07-20T18:00:37.594Z,100567.08
2018-07-20T18:03:06.582Z,100565.80
2018-07-20T18:05:35.058Z,100566.28
2018-07-20T18:08:04.089Z,100566.28
2018-07-20T18:10:32.595Z,100560.41
2018-07-20T18:13:01.578Z,100558.82
2018-07-20T18:15:30.332Z,100553.27
2018-07-20T18:17:58.991Z,100554.20
2018-07-20T18:20:29.494Z,100544.61
2018-07-20T18:22:58.176Z,100547.52
2018-07-20T18:25:26.895Z,100548.36
2018-07-20T18:27:58.200Z,100540.72
2018-07-20T18:30:27.217Z,100535.37
2018-07-20T18:32:57.029Z,100532.24
2018-07-20T18:35:25.826Z,100540.18
2018-07-20T18:37:54.282Z,100540.06
2018-07-20T18:40:24.841Z,100541.70
2018-07-20T18:42:53.911Z,100535.18
2018-07-20T18:45:23.437Z,100540.56
2018-07-20T18:47:52.679Z,100543.11
2018-07-20T18:50:21.557Z,100547.16
2018-07-20T18:52:50.305Z,100548.86
2018-07-20T18:55:19.179Z,100542.81
2018-07-20T18:57:47.986Z,100538.91
2018-07-20T19:00:16.434Z,100546.66
2018-07-20T19:02:45.842Z,100547.12
2018-07-20T19:05:14.638Z,100539.92
2018-07-20T19:07:43.262Z,100546.11
2018-07-20T19:10:12.121Z,100544.84
2018-07-20T19:12:40.634Z,100542.69
2018-07-20T19:15:09.746Z,100544.36
2018-07-20T19:17:40.778Z,100547.05
2018-07-20T19:20:10.343Z,100546.66
2018-07-20T19:22:38.813Z,100546.86
2018-07-20T19:25:08.042Z,100545.59
2018-07-20T19:27:36.757Z,100543.44
2018-07-20T19:30:05.252Z,100542.84
2018-07-20T19:32:34.019Z,100542.70
2018-07-20T19:35:03.093Z,100539.92
2018-07-20T19:37:31.542Z,100543.62
2018-07-20T19:40:00.206Z,100541.27
2018-07-20T19:42:28.741Z,100542.08
2018-07-20T19:44:57.269Z,100539.79
2018-07-20T19:47:26.121Z,100533.47
2018-07-20T19:49:54.637Z,100538.98
2018-07-20T19:52:24.425Z,100528.82
2018-07-20T19:54:53.797Z,100530.69
2018-07-20T19:57:22.710Z,100528.33
2018-07-20T19:59:51.401Z,100534.03
2018-07-20T20:02:20.405Z,100540.03
2018-07-20T20:04:49.171Z,100537.31
2018-07-20T20:07:17.660Z,100534.56
2018-07-20T20:09:46.397Z,100540.91
2018-07-20T20:12:15.801Z,100538.87
2018-07-20T20:14:44.303Z,100535.70
2018-07-20T20:17:13.341Z,100538.63
2018-07-20T20:19:42.053Z,100538.47
2018-07-20T20:22:10.493Z,100536.47
2018-07-20T20:24:39.002Z,100539.22
2018-07-20T20:27:07.957Z,100537.88
2018-07-20T20:29:36.965Z,100534.38
2018-07-20T20:32:05.943Z,100530.88
2018-07-20T20:34:34.441Z,100531.94
2018-07-20T20:37:03.581Z,100529.91
2018-07-20T20:39:32.194Z,100524.72
2018-07-20T20:42:00.638Z,100528.45
2018-07-20T20:44:29.670Z,100533.95
2018-07-20T20:46:58.853Z,100530.51
2018-07-20T20:49:27.337Z,100531.53
2018-07-20T20:51:55.829Z,100531.18
2018-07-20T20:54:24.753Z,100528.15
2018-07-20T20:56:53.865Z,100525.93
2018-07-20T20:59:22.407Z,100527.86
2018-07-20T21:01:51.477Z,100525.23
2018-07-20T21:04:20.139Z,100523.95
2018-07-20T21:06:48.589Z,100521.79
2018-07-20T21:09:17.734Z,100522.96
2018-07-20T21:11:46.507Z,100523.60
2018-07-20T21:14:14.939Z,100527.74
2018-07-20T21:16:43.791Z,100525.05
2018-07-20T21:19:12.988Z,100523.75
2018-07-20T21:21:41.787Z,100519.72
2018-07-20T21:24:10.773Z,100517.80
2018-07-20T21:26:39.215Z,100521.41
2018-07-20T21:29:07.888Z,100526.01
2018-07-20T21:31:36.730Z,100520.45
2018-07-20T21:34:05.231Z,100520.97
2018-07-20T21:36:33.990Z,100520.56
2018-07-20T21:39:02.859Z,100517.11
2018-07-20T21:41:31.297Z,100522.52
2018-07-20T21:43:59.755Z,100523.87
2018-07-20T21:46:28.533Z,100519.55
2018-07-20T21:48:57.054Z,100517.73
2018-07-20T21:51:25.554Z,100520.47
2018-07-20T21:53:54.285Z,100517.08
2018-07-20T21:56:23.109Z,100513.62
2018-07-20T21:58:51.825Z,100519.55
2018-07-20T22:01:20.762Z,100526.30
2018-07-20T22:03:49.503Z,100511.26
2018-07-20T22:06:17.966Z,100515.08
2018-07-20T22:08:47.081Z,100515.05
2018-07-20T22:11:15.795Z,100513.59
2018-07-20T22:13:44.498Z,100512.77
2018-07-20T22:16:13.404Z,100511.58
2018-07-20T22:18:41.855Z,100510.86
2018-07-20T22:21:10.682Z,100512.80
2018-07-20T22:23:39.545Z,100510.69
2018-07-20T22:26:08.581Z,100517.02
2018-07-20T22:28:37.025Z,100516.05
2018-07-20T22:31:05.893Z,100513.42
2018-07-20T22:33:34.352Z,100515.78
2018-07-20T22:36:03.609Z,100523.40
2018-07-20T22:38:32.487Z,100519.84
2018-07-20T22:41:01.046Z,100522.98
2018-07-20T22:43:29.635Z,100525.80
2018-07-20T22:45:58.725Z,100522.95
2018-07-20T22:48:27.633Z,100526.38
2018-07-20T22:50:56.078Z,100525.64
2018-07-20T22:53:25.185Z,100527.95
2018-07-20T22:55:53.642Z,100520.07
2018-07-20T22:58:22.088Z,100522.88
2018-07-20T23:00:50.943Z,100529.53
2018-07-20T23:03:19.386Z,100527.87
2018-07-20T23:05:48.122Z,100529.88
2018-07-20T23:08:17.022Z,100521.98
2018-07-20T23:10:45.749Z,100520.23
2018-07-20T23:13:14.205Z,100515.90
2018-07-20T23:15:43.160Z,100520.38
2018-07-20T23:18:11.836Z,100527.15
2018-07-20T23:20:40.345Z,100496.92
2018-07-20T23:23:09.653Z,100522.02
2018-07-20T23:25:39.773Z,100516.52
2018-07-20T23:28:08.227Z,100520.33
2018-07-20T23:30:37.046Z,100517.36
2018-07-20T23:33:06.130Z,100518.73
2018-07-20T23:35:34.778Z,100515.61
2018-07-20T23:38:03.856Z,100491.84
2018-07-20T23:40:32.350Z,100512.52
2018-07-20T23:43:01.268Z,100513.48
2018-07-20T23:45:30.649Z,100519.33
2018-07-20T23:47:59.105Z,100521.50
2018-07-20T23:50:28.105Z,100524.05
2018-07-20T23:52:59.849Z,100519.95
2018-07-20T23:55:28.376Z,100516.02
2018-07-20T23:57:57.398Z,100511.47
